sensor_id;sensor_type;location;lat;lon;timestamp;P1;durP1;ratioP1;P2;durP2;ratioP2
21501;SDS011;27639;48.674;9.242;2022-11-20T00:00:24;5.85;;;4.07;;
21501;SDS011;27639;48.674;9.242;2022-11-20T00:02:49;7.82;;;4.60;;
21501;SDS011;27639;48.674;9.242;2022-11-20T00:05:15;7.45;;;4.45;;
21501;SDS011;27639;48.674;9.242;2022-11-20T00:07:41;6.82;;;4.20;;
21501;SDS011;27639;48.674;9.242;2022-11-20T00:10:07;8.35;;;5.05;;
21501;SDS011;27639;48.674;9.242;2022-11-20T00:12:33;7.85;;;5.15;;
21501;SDS011;27639;48.674;9.242;2022-11-20T00:14:58;8.10;;;5.15;;
21501;SDS011;27639;48.674;9.242;2022-11-20T00:17:24;6.97;;;4.47;;
21501;SDS011;27639;48.674;9.242;2022-11-20T00:19:49;6.70;;;3.95;;
21501;SDS011;27639;48.674;9.242;2022-11-20T00:22:15;7.05;;;4.38;;
21501;SDS011;27639;48.674;9.242;2022-11-20T00:24:40;5.68;;;3.47;;
21501;SDS011;27639;48.674;9.242;2022-11-20T00:27:06;7.28;;;3.70;;
21501;SDS011;27639;48.674;9.242;2022-11-20T00:29:32;5.18;;;3.20;;
21501;SDS011;27639;48.674;9.242;2022-11-20T00:31:57;5.25;;;3.50;;
21501;SDS011;27639;48.674;9.242;2022-11-20T00:34:23;4.50;;;3.20;;
21501;SDS011;27639;48.674;9.242;2022-11-20T00:36:48;5.50;;;3.20;;
21501;SDS011;27639;48.674;9.242;2022-11-20T00:39:14;5.82;;;2.85;;
21501;SDS011;27639;48.674;9.242;2022-11-20T00:41:39;4.00;;;2.90;;
21501;SDS011;27639;48.674;9.242;2022-11-20T00:44:05;4.72;;;2.67;;
21501;SDS011;27639;48.674;9.242;2022-11-20T00:46:30;5.57;;;3.03;;
21501;SDS011;27639;48.674;9.242;2022-11-20T00:48:56;4.65;;;2.90;;
21501;SDS011;27639;48.674;9.242;2022-11-20T00:51:23;6.45;;;2.90;;
21501;SDS011;27639;48.674;9.242;2022-11-20T00:53:49;5.05;;;2.97;;
21501;SDS011;27639;48.674;9.242;2022-11-20T00:56:16;5.05;;;2.58;;
21501;SDS011;27639;48.674;9.242;2022-11-20T00:58:44;4.97;;;3.08;;
21501;SDS011;27639;48.674;9.242;2022-11-20T01:01:18;5.47;;;3.00;;
21501;SDS011;27639;48.674;9.242;2022-11-20T01:06:13;4.85;;;2.95;;
21501;SDS011;27639;48.674;9.242;2022-11-20T01:08:43;6.72;;;3.15;;
21501;SDS011;27639;48.674;9.242;2022-11-20T01:11:11;5.07;;;2.65;;
21501;SDS011;27639;48.674;9.242;2022-11-20T01:13:40;4.35;;;3.20;;
21501;SDS011;27639;48.674;9.242;2022-11-20T01:16:07;4.47;;;3.00;;
21501;SDS011;27639;48.674;9.242;2022-11-20T01:18:37;4.70;;;2.53;;
21501;SDS011;27639;48.674;9.242;2022-11-20T01:21:05;4.45;;;2.85;;
21501;SDS011;27639;48.674;9.242;2022-11-20T01:23:37;5.18;;;2.58;;
21501;SDS011;27639;48.674;9.242;2022-11-20T01:26:06;3.90;;;2.53;;
21501;SDS011;27639;48.674;9.242;2022-11-20T01:28:33;4.40;;;2.90;;
21501;SDS011;27639;48.674;9.242;2022-11-20T01:30:59;4.85;;;2.42;;
21501;SDS011;27639;48.674;9.242;2022-11-20T01:33:25;4.93;;;2.50;;
21501;SDS011;27639;48.674;9.242;2022-11-20T01:35:52;4.78;;;2.58;;
21501;SDS011;27639;48.674;9.242;2022-11-20T01:38:18;4.47;;;2.40;;
21501;SDS011;27639;48.674;9.242;2022-11-20T01:40:54;4.78;;;2.55;;
21501;SDS011;27639;48.674;9.242;2022-11-20T01:43:20;4.47;;;2.50;;
21501;SDS011;27639;48.674;9.242;2022-11-20T01:48:12;5.53;;;2.78;;
21501;SDS011;27639;48.674;9.242;2022-11-20T01:50:39;4.25;;;2.42;;
21501;SDS011;27639;48.674;9.242;2022-11-20T01:53:08;4.78;;;2.47;;
21501;SDS011;27639;48.674;9.242;2022-11-20T01:55:42;5.55;;;2.78;;
21501;SDS011;27639;48.674;9.242;2022-11-20T01:58:12;4.15;;;2.30;;
21501;SDS011;27639;48.674;9.242;2022-11-20T02:00:38;4.38;;;2.70;;
21501;SDS011;27639;48.674;9.242;2022-11-20T02:03:08;3.65;;;2.30;;
21501;SDS011;27639;48.674;9.242;2022-11-20T02:08:15;5.15;;;2.65;;
21501;SDS011;27639;48.674;9.242;2022-11-20T02:10:41;4.30;;;2.90;;
21501;SDS011;27639;48.674;9.242;2022-11-20T02:13:06;4.82;;;3.25;;
21501;SDS011;27639;48.674;9.242;2022-11-20T02:15:51;5.05;;;3.10;;
21501;SDS011;27639;48.674;9.242;2022-11-20T02:18:18;5.07;;;3.05;;
21501;SDS011;27639;48.674;9.242;2022-11-20T02:20:45;5.57;;;3.00;;
21501;SDS011;27639;48.674;9.242;2022-11-20T02:23:21;5.40;;;3.63;;
21501;SDS011;27639;48.674;9.242;2022-11-20T02:25:49;5.60;;;3.13;;
21501;SDS011;27639;48.674;9.242;2022-11-20T02:28:16;5.20;;;3.38;;
21501;SDS011;27639;48.674;9.242;2022-11-20T02:30:42;6.05;;;3.80;;
21501;SDS011;27639;48.674;9.242;2022-11-20T02:33:08;6.13;;;3.53;;
21501;SDS011;27639;48.674;9.242;2022-11-20T02:38:00;5.38;;;3.55;;
21501;SDS011;27639;48.674;9.242;2022-11-20T02:40:27;5.63;;;3.17;;
21501;SDS011;27639;48.674;9.242;2022-11-20T02:42:56;5.53;;;3.45;;
21501;SDS011;27639;48.674;9.242;2022-11-20T02:45:22;6.38;;;3.47;;
21501;SDS011;27639;48.674;9.242;2022-11-20T02:47:49;5.38;;;3.25;;
21501;SDS011;27639;48.674;9.242;2022-11-20T02:50:14;6.03;;;3.38;;
21501;SDS011;27639;48.674;9.242;2022-11-20T02:52:40;5.95;;;3.50;;
21501;SDS011;27639;48.674;9.242;2022-11-20T02:55:06;5.20;;;3.28;;
21501;SDS011;27639;48.674;9.242;2022-11-20T02:57:32;4.55;;;3.15;;
21501;SDS011;27639;48.674;9.242;2022-11-20T02:59:58;5.60;;;3.17;;
21501;SDS011;27639;48.674;9.242;2022-11-20T03:02:23;4.75;;;3.13;;
21501;SDS011;27639;48.674;9.242;2022-11-20T03:04:49;5.28;;;3.60;;
21501;SDS011;27639;48.674;9.242;2022-11-20T03:07:14;4.93;;;3.50;;
21501;SDS011;27639;48.674;9.242;2022-11-20T03:09:40;4.82;;;3.00;;
21501;SDS011;27639;48.674;9.242;2022-11-20T03:12:06;4.78;;;3.05;;
21501;SDS011;27639;48.674;9.242;2022-11-20T03:14:32;6.05;;;3.20;;
21501;SDS011;27639;48.674;9.242;2022-11-20T03:16:57;5.82;;;3.10;;
21501;SDS011;27639;48.674;9.242;2022-11-20T03:19:23;4.75;;;2.90;;
21501;SDS011;27639;48.674;9.242;2022-11-20T03:21:48;5.82;;;3.17;;
21501;SDS011;27639;48.674;9.242;2022-11-20T03:24:14;4.80;;;3.30;;
21501;SDS011;27639;48.674;9.242;2022-11-20T03:26:40;5.40;;;3.63;;
21501;SDS011;27639;48.674;9.242;2022-11-20T03:29:06;4.72;;;3.13;;
21501;SDS011;27639;48.674;9.242;2022-11-20T03:31:36;4.38;;;2.80;;
21501;SDS011;27639;48.674;9.242;2022-11-20T03:34:05;4.70;;;3.67;;
21501;SDS011;27639;48.674;9.242;2022-11-20T03:36:32;5.10;;;2.90;;
21501;SDS011;27639;48.674;9.242;2022-11-20T03:38:57;4.97;;;2.85;;
21501;SDS011;27639;48.674;9.242;2022-11-20T03:41:24;4.78;;;2.70;;
21501;SDS011;27639;48.674;9.242;2022-11-20T03:43:53;5.28;;;2.67;;
21501;SDS011;27639;48.674;9.242;2022-11-20T03:46:20;4.30;;;2.70;;
21501;SDS011;27639;48.674;9.242;2022-11-20T03:48:46;4.43;;;3.05;;
21501;SDS011;27639;48.674;9.242;2022-11-20T03:51:13;6.20;;;3.05;;
21501;SDS011;27639;48.674;9.242;2022-11-20T03:53:40;4.07;;;2.50;;
21501;SDS011;27639;48.674;9.242;2022-11-20T03:56:06;4.50;;;3.03;;
21501;SDS011;27639;48.674;9.242;2022-11-20T03:58:34;4.82;;;2.67;;
21501;SDS011;27639;48.674;9.242;2022-11-20T04:01:12;5.78;;;2.92;;
21501;SDS011;27639;48.674;9.242;2022-11-20T04:03:45;4.10;;;2.58;;
21501;SDS011;27639;48.674;9.242;2022-11-20T04:06:12;4.65;;;2.90;;
21501;SDS011;27639;48.674;9.242;2022-11-20T04:08:49;4.20;;;2.75;;
21501;SDS011;27639;48.674;9.242;2022-11-20T04:11:15;4.50;;;2.70;;
21501;SDS011;27639;48.674;9.242;2022-11-20T04:13:46;4.22;;;2.53;;
21501;SDS011;27639;48.674;9.242;2022-11-20T04:16:13;4.38;;;2.70;;
21501;SDS011;27639;48.674;9.242;2022-11-20T04:18:39;6.25;;;2.70;;
21501;SDS011;27639;48.674;9.242;2022-11-20T04:21:05;5.35;;;2.85;;
21501;SDS011;27639;48.674;9.242;2022-11-20T04:23:31;5.82;;;2.70;;
21501;SDS011;27639;48.674;9.242;2022-11-20T04:26:07;4.47;;;2.65;;
21501;SDS011;27639;48.674;9.242;2022-11-20T04:28:35;6.03;;;2.60;;
21501;SDS011;27639;48.674;9.242;2022-11-20T04:31:05;4.88;;;2.55;;
21501;SDS011;27639;48.674;9.242;2022-11-20T04:33:35;4.75;;;2.63;;
21501;SDS011;27639;48.674;9.242;2022-11-20T04:36:02;5.47;;;2.80;;
21501;SDS011;27639;48.674;9.242;2022-11-20T04:38:30;4.07;;;2.30;;
21501;SDS011;27639;48.674;9.242;2022-11-20T04:40:56;4.35;;;2.25;;
21501;SDS011;27639;48.674;9.242;2022-11-20T04:43:23;5.00;;;2.20;;
21501;SDS011;27639;48.674;9.242;2022-11-20T04:45:52;5.50;;;2.50;;
21501;SDS011;27639;48.674;9.242;2022-11-20T04:48:18;4.32;;;2.50;;
21501;SDS011;27639;48.674;9.242;2022-11-20T04:50:44;4.45;;;2.60;;
21501;SDS011;27639;48.674;9.242;2022-11-20T04:53:10;3.78;;;2.65;;
21501;SDS011;27639;48.674;9.242;2022-11-20T04:55:35;5.47;;;2.38;;
21501;SDS011;27639;48.674;9.242;2022-11-20T04:58:01;4.22;;;2.17;;
21501;SDS011;27639;48.674;9.242;2022-11-20T05:00:26;4.60;;;2.50;;
21501;SDS011;27639;48.674;9.242;2022-11-20T05:02:52;3.92;;;2.42;;
21501;SDS011;27639;48.674;9.242;2022-11-20T05:05:18;5.13;;;2.53;;
21501;SDS011;27639;48.674;9.242;2022-11-20T05:07:43;4.15;;;2.33;;
21501;SDS011;27639;48.674;9.242;2022-11-20T05:10:09;4.10;;;2.35;;
21501;SDS011;27639;48.674;9.242;2022-11-20T05:12:34;4.15;;;2.40;;
21501;SDS011;27639;48.674;9.242;2022-11-20T05:15:00;3.88;;;2.00;;
21501;SDS011;27639;48.674;9.242;2022-11-20T05:17:25;4.05;;;2.25;;
21501;SDS011;27639;48.674;9.242;2022-11-20T05:19:51;4.57;;;2.13;;
21501;SDS011;27639;48.674;9.242;2022-11-20T05:22:16;3.97;;;2.28;;
21501;SDS011;27639;48.674;9.242;2022-11-20T05:24:42;5.10;;;2.45;;
21501;SDS011;27639;48.674;9.242;2022-11-20T05:27:07;3.53;;;2.05;;
21501;SDS011;27639;48.674;9.242;2022-11-20T05:29:33;4.20;;;2.40;;
21501;SDS011;27639;48.674;9.242;2022-11-20T05:31:58;4.65;;;2.15;;
21501;SDS011;27639;48.674;9.242;2022-11-20T05:34:24;3.50;;;2.08;;
21501;SDS011;27639;48.674;9.242;2022-11-20T05:36:49;4.38;;;2.17;;
21501;SDS011;27639;48.674;9.242;2022-11-20T05:39:15;3.72;;;2.15;;
21501;SDS011;27639;48.674;9.242;2022-11-20T05:41:41;4.30;;;2.00;;
21501;SDS011;27639;48.674;9.242;2022-11-20T05:44:06;6.32;;;2.20;;
21501;SDS011;27639;48.674;9.242;2022-11-20T05:46:32;3.92;;;2.22;;
21501;SDS011;27639;48.674;9.242;2022-11-20T05:48:57;4.20;;;2.20;;
21501;SDS011;27639;48.674;9.242;2022-11-20T05:51:23;4.25;;;2.22;;
21501;SDS011;27639;48.674;9.242;2022-11-20T05:53:50;3.75;;;1.92;;
21501;SDS011;27639;48.674;9.242;2022-11-20T05:56:17;3.80;;;2.20;;
21501;SDS011;27639;48.674;9.242;2022-11-20T05:58:44;3.53;;;2.08;;
21501;SDS011;27639;48.674;9.242;2022-11-20T06:01:17;5.15;;;2.58;;
21501;SDS011;27639;48.674;9.242;2022-11-20T06:03:44;5.00;;;2.85;;
21501;SDS011;27639;48.674;9.242;2022-11-20T06:06:12;6.00;;;2.60;;
21501;SDS011;27639;48.674;9.242;2022-11-20T06:08:39;5.35;;;2.55;;
21501;SDS011;27639;48.674;9.242;2022-11-20T06:11:06;4.10;;;2.53;;
21501;SDS011;27639;48.674;9.242;2022-11-20T06:13:33;4.97;;;2.63;;
21501;SDS011;27639;48.674;9.242;2022-11-20T06:15:59;4.97;;;2.55;;
21501;SDS011;27639;48.674;9.242;2022-11-20T06:18:25;4.35;;;2.42;;
21501;SDS011;27639;48.674;9.242;2022-11-20T06:21:06;4.13;;;2.40;;
21501;SDS011;27639;48.674;9.242;2022-11-20T06:23:36;3.33;;;2.10;;
21501;SDS011;27639;48.674;9.242;2022-11-20T06:26:06;4.95;;;2.85;;
21501;SDS011;27639;48.674;9.242;2022-11-20T06:28:34;5.30;;;2.53;;
21501;SDS011;27639;48.674;9.242;2022-11-20T06:30:59;5.20;;;2.55;;
21501;SDS011;27639;48.674;9.242;2022-11-20T06:33:25;4.00;;;2.35;;
21501;SDS011;27639;48.674;9.242;2022-11-20T06:35:51;6.68;;;2.03;;
21501;SDS011;27639;48.674;9.242;2022-11-20T06:38:17;4.78;;;2.35;;
21501;SDS011;27639;48.674;9.242;2022-11-20T06:40:42;5.18;;;2.40;;
21501;SDS011;27639;48.674;9.242;2022-11-20T06:43:09;4.80;;;2.65;;
21501;SDS011;27639;48.674;9.242;2022-11-20T06:45:35;4.70;;;2.65;;
21501;SDS011;27639;48.674;9.242;2022-11-20T06:48:01;5.65;;;2.58;;
21501;SDS011;27639;48.674;9.242;2022-11-20T06:50:27;6.03;;;3.35;;
21501;SDS011;27639;48.674;9.242;2022-11-20T06:52:52;5.22;;;3.33;;
21501;SDS011;27639;48.674;9.242;2022-11-20T06:55:18;5.15;;;2.90;;
21501;SDS011;27639;48.674;9.242;2022-11-20T06:57:43;5.07;;;2.90;;
21501;SDS011;27639;48.674;9.242;2022-11-20T07:00:09;4.82;;;3.00;;
21501;SDS011;27639;48.674;9.242;2022-11-20T07:02:35;5.78;;;2.55;;
21501;SDS011;27639;48.674;9.242;2022-11-20T07:05:01;5.10;;;2.95;;
21501;SDS011;27639;48.674;9.242;2022-11-20T07:07:27;5.15;;;3.08;;
21501;SDS011;27639;48.674;9.242;2022-11-20T07:09:52;4.72;;;2.72;;
21501;SDS011;27639;48.674;9.242;2022-11-20T07:12:18;4.35;;;2.42;;
21501;SDS011;27639;48.674;9.242;2022-11-20T07:14:43;4.93;;;2.97;;
21501;SDS011;27639;48.674;9.242;2022-11-20T07:17:09;5.97;;;3.55;;
21501;SDS011;27639;48.674;9.242;2022-11-20T07:19:34;5.53;;;2.65;;
21501;SDS011;27639;48.674;9.242;2022-11-20T07:22:00;3.72;;;2.60;;
21501;SDS011;27639;48.674;9.242;2022-11-20T07:24:25;5.20;;;2.63;;
21501;SDS011;27639;48.674;9.242;2022-11-20T07:26:51;3.55;;;2.30;;
21501;SDS011;27639;48.674;9.242;2022-11-20T07:29:16;3.67;;;2.40;;
21501;SDS011;27639;48.674;9.242;2022-11-20T07:31:42;3.95;;;2.45;;
21501;SDS011;27639;48.674;9.242;2022-11-20T07:34:08;5.00;;;2.60;;
21501;SDS011;27639;48.674;9.242;2022-11-20T07:36:34;4.03;;;2.50;;
21501;SDS011;27639;48.674;9.242;2022-11-20T07:39:00;5.07;;;2.78;;
21501;SDS011;27639;48.674;9.242;2022-11-20T07:41:25;4.82;;;2.60;;
21501;SDS011;27639;48.674;9.242;2022-11-20T07:43:51;4.10;;;2.10;;
21501;SDS011;27639;48.674;9.242;2022-11-20T07:46:16;4.35;;;2.22;;
21501;SDS011;27639;48.674;9.242;2022-11-20T07:48:42;4.38;;;2.50;;
21501;SDS011;27639;48.674;9.242;2022-11-20T07:51:07;5.03;;;2.65;;
21501;SDS011;27639;48.674;9.242;2022-11-20T07:53:33;5.50;;;2.60;;
21501;SDS011;27639;48.674;9.242;2022-11-20T07:55:59;4.15;;;2.38;;
21501;SDS011;27639;48.674;9.242;2022-11-20T07:58:25;6.03;;;2.70;;
21501;SDS011;27639;48.674;9.242;2022-11-20T08:00:51;3.58;;;2.33;;
21501;SDS011;27639;48.674;9.242;2022-11-20T08:03:16;5.15;;;2.58;;
21501;SDS011;27639;48.674;9.242;2022-11-20T08:05:42;4.57;;;2.30;;
21501;SDS011;27639;48.674;9.242;2022-11-20T08:08:07;5.25;;;2.88;;
21501;SDS011;27639;48.674;9.242;2022-11-20T08:10:33;5.63;;;2.30;;
21501;SDS011;27639;48.674;9.242;2022-11-20T08:12:58;4.45;;;2.03;;
21501;SDS011;27639;48.674;9.242;2022-11-20T08:15:47;5.40;;;2.20;;
21501;SDS011;27639;48.674;9.242;2022-11-20T08:18:14;4.28;;;2.10;;
21501;SDS011;27639;48.674;9.242;2022-11-20T08:20:40;4.22;;;2.30;;
21501;SDS011;27639;48.674;9.242;2022-11-20T08:23:06;4.35;;;2.22;;
21501;SDS011;27639;48.674;9.242;2022-11-20T08:25:33;5.95;;;2.67;;
21501;SDS011;27639;48.674;9.242;2022-11-20T08:28:04;4.53;;;2.38;;
21501;SDS011;27639;48.674;9.242;2022-11-20T08:30:31;3.72;;;2.40;;
21501;SDS011;27639;48.674;9.242;2022-11-20T08:33:01;5.03;;;2.53;;
21501;SDS011;27639;48.674;9.242;2022-11-20T08:35:28;3.50;;;2.47;;
21501;SDS011;27639;48.674;9.242;2022-11-20T08:37:57;5.85;;;2.97;;
21501;SDS011;27639;48.674;9.242;2022-11-20T08:40:22;4.63;;;2.42;;
21501;SDS011;27639;48.674;9.242;2022-11-20T08:42:49;4.30;;;2.95;;
21501;SDS011;27639;48.674;9.242;2022-11-20T08:45:15;4.82;;;2.42;;
21501;SDS011;27639;48.674;9.242;2022-11-20T08:47:42;4.68;;;2.60;;
21501;SDS011;27639;48.674;9.242;2022-11-20T08:50:08;4.15;;;2.30;;
21501;SDS011;27639;48.674;9.242;2022-11-20T08:52:35;3.75;;;2.30;;
21501;SDS011;27639;48.674;9.242;2022-11-20T08:55:01;4.22;;;2.33;;
21501;SDS011;27639;48.674;9.242;2022-11-20T08:57:27;3.63;;;2.25;;
21501;SDS011;27639;48.674;9.242;2022-11-20T08:59:52;4.35;;;2.20;;
21501;SDS011;27639;48.674;9.242;2022-11-20T09:02:18;3.50;;;2.13;;
21501;SDS011;27639;48.674;9.242;2022-11-20T09:04:43;3.58;;;2.20;;
21501;SDS011;27639;48.674;9.242;2022-11-20T09:07:09;3.40;;;2.03;;
21501;SDS011;27639;48.674;9.242;2022-11-20T09:09:35;4.07;;;2.00;;
21501;SDS011;27639;48.674;9.242;2022-11-20T09:12:00;3.85;;;1.85;;
21501;SDS011;27639;48.674;9.242;2022-11-20T09:14:26;4.82;;;2.17;;
21501;SDS011;27639;48.674;9.242;2022-11-20T09:16:54;3.35;;;1.90;;
21501;SDS011;27639;48.674;9.242;2022-11-20T09:19:20;4.78;;;2.80;;
21501;SDS011;27639;48.674;9.242;2022-11-20T09:21:49;3.72;;;2.30;;
21501;SDS011;27639;48.674;9.242;2022-11-20T09:24:14;3.38;;;1.55;;
21501;SDS011;27639;48.674;9.242;2022-11-20T09:26:40;2.97;;;1.60;;
21501;SDS011;27639;48.674;9.242;2022-11-20T09:29:05;2.97;;;1.40;;
21501;SDS011;27639;48.674;9.242;2022-11-20T09:31:31;2.60;;;1.33;;
21501;SDS011;27639;48.674;9.242;2022-11-20T09:33:56;3.03;;;1.30;;
21501;SDS011;27639;48.674;9.242;2022-11-20T09:36:22;2.90;;;1.50;;
21501;SDS011;27639;48.674;9.242;2022-11-20T09:38:48;2.70;;;1.35;;
21501;SDS011;27639;48.674;9.242;2022-11-20T09:41:21;3.08;;;1.33;;
21501;SDS011;27639;48.674;9.242;2022-11-20T09:46:41;2.78;;;1.30;;
21501;SDS011;27639;48.674;9.242;2022-11-20T09:54:18;3.08;;;2.10;;
21501;SDS011;27639;48.674;9.242;2022-11-20T09:56:59;2.60;;;1.30;;
21501;SDS011;27639;48.674;9.242;2022-11-20T10:02:01;2.20;;;1.10;;
21501;SDS011;27639;48.674;9.242;2022-11-20T10:04:31;2.35;;;0.95;;
21501;SDS011;27639;48.674;9.242;2022-11-20T10:07:11;3.60;;;1.30;;
21501;SDS011;27639;48.674;9.242;2022-11-20T10:09:43;2.90;;;1.30;;
21501;SDS011;27639;48.674;9.242;2022-11-20T10:15:40;2.15;;;0.85;;
21501;SDS011;27639;48.674;9.242;2022-11-20T10:23:40;2.55;;;0.90;;
21501;SDS011;27639;48.674;9.242;2022-11-20T10:31:31;2.90;;;1.33;;
21501;SDS011;27639;48.674;9.242;2022-11-20T10:34:00;2.58;;;1.10;;
21501;SDS011;27639;48.674;9.242;2022-11-20T10:36:49;4.00;;;1.10;;
21501;SDS011;27639;48.674;9.242;2022-11-20T10:39:31;1.60;;;0.68;;
21501;SDS011;27639;48.674;9.242;2022-11-20T10:42:02;3.17;;;1.30;;
21501;SDS011;27639;48.674;9.242;2022-11-20T10:44:33;2.17;;;0.90;;
21501;SDS011;27639;48.674;9.242;2022-11-20T10:47:19;2.10;;;0.80;;
21501;SDS011;27639;48.674;9.242;2022-11-20T10:49:46;1.90;;;1.00;;
21501;SDS011;27639;48.674;9.242;2022-11-20T11:00:19;2.50;;;1.20;;
21501;SDS011;27639;48.674;9.242;2022-11-20T11:02:49;3.10;;;1.48;;
21501;SDS011;27639;48.674;9.242;2022-11-20T11:08:13;3.08;;;1.40;;
21501;SDS011;27639;48.674;9.242;2022-11-20T11:13:26;3.42;;;1.60;;
21501;SDS011;27639;48.674;9.242;2022-11-20T11:15:54;2.88;;;1.40;;
21501;SDS011;27639;48.674;9.242;2022-11-20T11:20:57;3.63;;;1.30;;
21501;SDS011;27639;48.674;9.242;2022-11-20T11:23:34;4.32;;;1.80;;
21501;SDS011;27639;48.674;9.242;2022-11-20T11:26:02;2.95;;;1.40;;
21501;SDS011;27639;48.674;9.242;2022-11-20T11:28:29;3.95;;;1.48;;
21501;SDS011;27639;48.674;9.242;2022-11-20T11:30:55;4.47;;;1.60;;
21501;SDS011;27639;48.674;9.242;2022-11-20T11:33:22;3.50;;;2.00;;
21501;SDS011;27639;48.674;9.242;2022-11-20T11:35:56;3.97;;;1.67;;
21501;SDS011;27639;48.674;9.242;2022-11-20T11:38:32;4.35;;;2.20;;
21501;SDS011;27639;48.674;9.242;2022-11-20T11:41:01;4.70;;;2.60;;
21501;SDS011;27639;48.674;9.242;2022-11-20T11:43:32;3.35;;;1.80;;
21501;SDS011;27639;48.674;9.242;2022-11-20T11:46:25;3.00;;;1.27;;
21501;SDS011;27639;48.674;9.242;2022-11-20T11:49:00;3.25;;;1.27;;
21501;SDS011;27639;48.674;9.242;2022-11-20T11:51:37;2.55;;;1.15;;
21501;SDS011;27639;48.674;9.242;2022-11-20T11:55:12;2.95;;;1.20;;
21501;SDS011;27639;48.674;9.242;2022-11-20T11:57:21;4.05;;;1.30;;
21501;SDS011;27639;48.674;9.242;2022-11-20T12:00:02;2.95;;;1.35;;
21501;SDS011;27639;48.674;9.242;2022-11-20T12:02:35;3.15;;;1.50;;
21501;SDS011;27639;48.674;9.242;2022-11-20T12:05:17;5.00;;;2.67;;
21501;SDS011;27639;48.674;9.242;2022-11-20T12:10:52;11.48;;;5.30;;
21501;SDS011;27639;48.674;9.242;2022-11-20T12:16:00;4.10;;;1.65;;
21501;SDS011;27639;48.674;9.242;2022-11-20T12:18:27;4.10;;;2.00;;
21501;SDS011;27639;48.674;9.242;2022-11-20T12:20:57;5.80;;;2.17;;
21501;SDS011;27639;48.674;9.242;2022-11-20T12:37:41;2.97;;;1.30;;
21501;SDS011;27639;48.674;9.242;2022-11-20T12:40:14;2.90;;;1.25;;
21501;SDS011;27639;48.674;9.242;2022-11-20T12:43:05;5.38;;;1.70;;
21501;SDS011;27639;48.674;9.242;2022-11-20T12:48:28;4.18;;;1.90;;
21501;SDS011;27639;48.674;9.242;2022-11-20T12:56:51;3.67;;;1.00;;
21501;SDS011;27639;48.674;9.242;2022-11-20T12:59:32;4.30;;;1.10;;
21501;SDS011;27639;48.674;9.242;2022-11-20T13:07:39;3.63;;;1.42;;
21501;SDS011;27639;48.674;9.242;2022-11-20T13:10:05;3.58;;;1.80;;
21501;SDS011;27639;48.674;9.242;2022-11-20T13:12:44;5.28;;;1.90;;
21501;SDS011;27639;48.674;9.242;2022-11-20T13:17:51;3.20;;;1.50;;
21501;SDS011;27639;48.674;9.242;2022-11-20T13:20:20;4.82;;;1.50;;
21501;SDS011;27639;48.674;9.242;2022-11-20T13:22:47;3.63;;;1.52;;
21501;SDS011;27639;48.674;9.242;2022-11-20T13:27:55;2.67;;;0.98;;
21501;SDS011;27639;48.674;9.242;2022-11-20T13:30:23;6.20;;;1.65;;
21501;SDS011;27639;48.674;9.242;2022-11-20T13:32:51;5.30;;;1.00;;
21501;SDS011;27639;48.674;9.242;2022-11-20T13:35:30;3.67;;;1.30;;
21501;SDS011;27639;48.674;9.242;2022-11-20T13:37:59;4.38;;;1.30;;
21501;SDS011;27639;48.674;9.242;2022-11-20T13:40:36;3.95;;;1.50;;
21501;SDS011;27639;48.674;9.242;2022-11-20T13:46:15;4.20;;;1.85;;
21501;SDS011;27639;48.674;9.242;2022-11-20T13:48:42;3.25;;;1.20;;
21501;SDS011;27639;48.674;9.242;2022-11-20T13:59:08;3.58;;;1.08;;
21501;SDS011;27639;48.674;9.242;2022-11-20T14:01:49;3.33;;;1.10;;
21501;SDS011;27639;48.674;9.242;2022-11-20T14:04:17;3.25;;;1.40;;
21501;SDS011;27639;48.674;9.242;2022-11-20T14:06:46;2.92;;;1.00;;
21501;SDS011;27639;48.674;9.242;2022-11-20T14:09:34;2.78;;;1.20;;
21501;SDS011;27639;48.674;9.242;2022-11-20T14:12:00;4.68;;;1.52;;
21501;SDS011;27639;48.674;9.242;2022-11-20T14:14:28;3.95;;;1.70;;
21501;SDS011;27639;48.674;9.242;2022-11-20T14:20:21;5.13;;;2.40;;
21501;SDS011;27639;48.674;9.242;2022-11-20T14:22:50;4.18;;;1.90;;
21501;SDS011;27639;48.674;9.242;2022-11-20T14:27:43;4.15;;;1.30;;
21501;SDS011;27639;48.674;9.242;2022-11-20T14:30:17;4.00;;;1.58;;
21501;SDS011;27639;48.674;9.242;2022-11-20T14:32:46;4.07;;;1.60;;
21501;SDS011;27639;48.674;9.242;2022-11-20T14:35:23;3.03;;;1.17;;
21501;SDS011;27639;48.674;9.242;2022-11-20T14:37:51;5.70;;;1.85;;
21501;SDS011;27639;48.674;9.242;2022-11-20T14:43:15;4.88;;;1.90;;
21501;SDS011;27639;48.674;9.242;2022-11-20T14:45:44;5.40;;;2.08;;
21501;SDS011;27639;48.674;9.242;2022-11-20T14:48:13;5.30;;;2.25;;
21501;SDS011;27639;48.674;9.242;2022-11-20T14:50:40;4.30;;;2.13;;
21501;SDS011;27639;48.674;9.242;2022-11-20T14:53:06;5.78;;;2.80;;
21501;SDS011;27639;48.674;9.242;2022-11-20T14:55:35;4.38;;;1.50;;
21501;SDS011;27639;48.674;9.242;2022-11-20T14:58:06;3.15;;;1.35;;
21501;SDS011;27639;48.674;9.242;2022-11-20T15:01:02;3.90;;;1.75;;
21501;SDS011;27639;48.674;9.242;2022-11-20T15:03:31;4.70;;;1.80;;
21501;SDS011;27639;48.674;9.242;2022-11-20T15:06:01;5.05;;;1.40;;
21501;SDS011;27639;48.674;9.242;2022-11-20T15:08:27;4.30;;;1.77;;
21501;SDS011;27639;48.674;9.242;2022-11-20T15:10:53;4.88;;;2.00;;
21501;SDS011;27639;48.674;9.242;2022-11-20T15:15:57;5.22;;;2.35;;
21501;SDS011;27639;48.674;9.242;2022-11-20T15:18:29;4.28;;;2.13;;
21501;SDS011;27639;48.674;9.242;2022-11-20T15:21:03;5.50;;;2.20;;
21501;SDS011;27639;48.674;9.242;2022-11-20T15:23:34;9.88;;;3.03;;
21501;SDS011;27639;48.674;9.242;2022-11-20T15:26:00;6.45;;;2.85;;
21501;SDS011;27639;48.674;9.242;2022-11-20T15:30:51;3.80;;;2.67;;
21501;SDS011;27639;48.674;9.242;2022-11-20T15:33:17;5.30;;;2.30;;
21501;SDS011;27639;48.674;9.242;2022-11-20T15:35:43;5.95;;;2.78;;
21501;SDS011;27639;48.674;9.242;2022-11-20T15:38:09;5.32;;;3.00;;
21501;SDS011;27639;48.674;9.242;2022-11-20T15:40:35;5.10;;;2.85;;
21501;SDS011;27639;48.674;9.242;2022-11-20T15:43:01;5.57;;;3.10;;
21501;SDS011;27639;48.674;9.242;2022-11-20T15:45:27;5.88;;;3.53;;
21501;SDS011;27639;48.674;9.242;2022-11-20T15:48:15;6.55;;;3.65;;
21501;SDS011;27639;48.674;9.242;2022-11-20T15:53:36;6.18;;;3.45;;
21501;SDS011;27639;48.674;9.242;2022-11-20T15:56:02;7.53;;;4.20;;
21501;SDS011;27639;48.674;9.242;2022-11-20T15:58:28;11.27;;;6.82;;
21501;SDS011;27639;48.674;9.242;2022-11-20T16:00:54;9.27;;;5.18;;
21501;SDS011;27639;48.674;9.242;2022-11-20T16:03:20;7.90;;;4.57;;
21501;SDS011;27639;48.674;9.242;2022-11-20T16:05:46;7.85;;;4.07;;
21501;SDS011;27639;48.674;9.242;2022-11-20T16:08:11;6.63;;;3.42;;
21501;SDS011;27639;48.674;9.242;2022-11-20T16:10:37;6.75;;;3.42;;
21501;SDS011;27639;48.674;9.242;2022-11-20T16:13:03;5.10;;;2.30;;
21501;SDS011;27639;48.674;9.242;2022-11-20T16:15:55;5.07;;;2.85;;
21501;SDS011;27639;48.674;9.242;2022-11-20T16:18:22;5.45;;;3.22;;
21501;SDS011;27639;48.674;9.242;2022-11-20T16:20:50;7.40;;;3.47;;
21501;SDS011;27639;48.674;9.242;2022-11-20T16:23:18;8.85;;;3.05;;
21501;SDS011;27639;48.674;9.242;2022-11-20T16:25:44;6.30;;;3.33;;
21501;SDS011;27639;48.674;9.242;2022-11-20T16:28:10;5.88;;;2.97;;
21501;SDS011;27639;48.674;9.242;2022-11-20T16:30:36;6.35;;;3.20;;
21501;SDS011;27639;48.674;9.242;2022-11-20T16:33:02;6.65;;;3.42;;
21501;SDS011;27639;48.674;9.242;2022-11-20T16:35:28;6.07;;;3.80;;
21501;SDS011;27639;48.674;9.242;2022-11-20T16:37:55;6.47;;;3.80;;
21501;SDS011;27639;48.674;9.242;2022-11-20T16:40:21;6.15;;;3.55;;
21501;SDS011;27639;48.674;9.242;2022-11-20T16:42:47;5.55;;;3.47;;
21501;SDS011;27639;48.674;9.242;2022-11-20T16:45:13;7.97;;;4.10;;
21501;SDS011;27639;48.674;9.242;2022-11-20T16:47:39;6.32;;;3.85;;
21501;SDS011;27639;48.674;9.242;2022-11-20T16:50:05;7.65;;;4.70;;
21501;SDS011;27639;48.674;9.242;2022-11-20T16:52:31;6.63;;;4.03;;